createdAt,value
2022-10-19T04:04:49.407Z,15.40
2022-10-19T04:09:02.016Z,14.20
2022-10-19T04:13:13.518Z,15.07
2022-10-19T04:17:25.567Z,14.68
2022-10-19T04:21:38.362Z,15.40
2022-10-19T04:25:50.198Z,15.77
2022-10-19T04:30:01.731Z,14.70
2022-10-19T04:34:13.264Z,15.65
2022-10-19T04:38:24.764Z,14.00
2022-10-19T04:42:36.289Z,14.40
2022-10-19T04:46:47.783Z,15.25
2022-10-19T04:50:59.467Z,13.98
2022-10-19T04:55:10.968Z,12.82
2022-10-19T04:59:22.483Z,13.02
2022-10-19T05:03:33.988Z,11.98
2022-10-19T05:07:45.503Z,12.00
2022-10-19T05:11:57.083Z,11.55
2022-10-19T05:16:12.036Z,11.65
2022-10-19T05:20:24.174Z,10.93
2022-10-19T05:24:35.680Z,10.80
2022-10-19T05:28:56.131Z,11.25
2022-10-19T05:33:07.722Z,11.27
2022-10-19T05:37:19.367Z,10.77
2022-10-19T05:41:31.103Z,10.90
2022-10-19T05:45:42.688Z,12.50
2022-10-19T05:49:54.221Z,12.80
2022-10-19T05:54:05.840Z,12.60
2022-10-19T05:58:17.330Z,14.52
2022-10-19T06:02:28.847Z,14.60
2022-10-19T06:06:41.455Z,14.35
2022-10-19T06:10:53.033Z,15.18
2022-10-19T06:15:04.696Z,15.80
2022-10-19T06:19:16.205Z,14.68
2022-10-19T06:23:27.888Z,14.52
2022-10-19T06:27:39.587Z,14.73
2022-10-19T06:31:52.136Z,13.98
2022-10-19T06:36:15.908Z,16.45
2022-10-19T06:40:27.754Z,15.07
2022-10-19T06:44:39.449Z,15.85
2022-10-19T06:48:57.084Z,15.13
2022-10-19T06:53:08.741Z,14.50
2022-10-19T06:57:20.318Z,15.63
2022-10-19T07:01:31.837Z,14.68
2022-10-19T07:05:43.348Z,14.27
2022-10-19T07:09:54.884Z,15.02
2022-10-19T07:14:06.386Z,14.60
2022-10-19T07:18:17.907Z,14.80
2022-10-19T07:22:29.449Z,14.23
2022-10-19T07:26:40.953Z,15.32
2022-10-19T07:30:52.483Z,14.68
2022-10-19T07:35:04.345Z,14.23
2022-10-19T07:39:19.302Z,12.70
2022-10-19T07:43:30.984Z,14.30
2022-10-19T07:47:42.599Z,14.02
2022-10-19T07:51:55.039Z,14.93
2022-10-19T07:56:15.503Z,13.93
2022-10-19T08:00:27.130Z,12.90
2022-10-19T08:09:18.885Z,14.32
2022-10-19T08:13:40.398Z,13.75
2022-10-19T08:17:51.886Z,13.85
2022-10-19T08:22:03.407Z,13.02
2022-10-19T08:26:14.946Z,13.05
2022-10-19T08:30:26.485Z,13.65
2022-10-19T08:34:38.014Z,14.00
2022-10-19T08:38:50.172Z,12.85
2022-10-19T08:43:20.379Z,12.40
2022-10-19T08:47:57.106Z,12.32
2022-10-19T08:52:20.287Z,11.48
2022-10-19T08:56:50.659Z,10.80
2022-10-19T09:01:25.223Z,10.38
2022-10-19T09:06:02.508Z,9.80
2022-10-19T09:10:14.593Z,9.50
2022-10-19T09:14:32.516Z,9.98
2022-10-19T09:18:46.830Z,9.07
2022-10-19T09:23:27.420Z,9.27
2022-10-19T09:27:41.327Z,9.63
2022-10-19T09:36:22.560Z,9.00
2022-10-19T09:40:39.124Z,8.98
2022-10-19T09:44:51.965Z,9.13
2022-10-19T09:49:05.005Z,9.98
2022-10-19T09:53:21.635Z,9.48
2022-10-19T09:57:33.491Z,8.90
2022-10-19T10:01:45.380Z,9.25
2022-10-19T10:06:05.758Z,8.25
2022-10-19T10:10:28.256Z,8.55
2022-10-19T10:14:49.907Z,7.78
2022-10-19T10:19:07.688Z,7.90
2022-10-19T10:23:29.073Z,7.90
2022-10-19T10:27:40.590Z,6.60
2022-10-19T10:32:00.214Z,6.80
2022-10-19T10:36:12.558Z,6.53
2022-10-19T10:40:28.017Z,6.53
2022-10-19T10:44:47.745Z,6.00
2022-10-19T10:49:03.039Z,6.00
2022-10-19T10:53:43.996Z,6.03
2022-10-19T10:58:17.908Z,6.05
2022-10-19T11:03:08.019Z,5.45
2022-10-19T11:07:26.482Z,5.65
2022-10-19T11:11:46.379Z,6.07
2022-10-19T11:15:57.840Z,6.10
2022-10-19T11:20:16.136Z,7.15
2022-10-19T11:25:10.782Z,6.70
2022-10-19T11:29:38.319Z,7.35
2022-10-19T11:34:21.218Z,7.00
2022-10-19T11:38:53.973Z,6.90
2022-10-19T11:43:27.211Z,6.43
2022-10-19T11:47:55.622Z,6.45
2022-10-19T11:52:10.101Z,7.13
2022-10-19T11:56:39.297Z,6.40
2022-10-19T12:01:00.403Z,6.53
2022-10-19T12:05:42.711Z,6.40
2022-10-19T12:10:14.113Z,6.18
2022-10-19T12:14:31.780Z,7.05
2022-10-19T12:18:49.184Z,6.82
2022-10-19T12:23:06.206Z,7.38
2022-10-19T12:27:35.714Z,7.20
2022-10-19T12:31:49.099Z,7.47
2022-10-19T12:36:12.643Z,7.03
2022-10-19T12:40:33.987Z,7.75
2022-10-19T12:45:23.039Z,7.82
2022-10-19T12:49:46.026Z,6.75
2022-10-19T12:54:09.397Z,8.65
2022-10-19T12:58:22.837Z,8.05
2022-10-19T13:02:36.622Z,8.32
2022-10-19T13:07:09.082Z,7.55
2022-10-19T13:11:21.511Z,7.28
2022-10-19T13:15:36.015Z,7.80
2022-10-19T13:19:47.524Z,8.23
2022-10-19T13:24:30.086Z,7.07
2022-10-19T13:28:57.456Z,8.60
2022-10-19T13:33:27.470Z,8.50
2022-10-19T13:37:39.169Z,8.68
2022-10-19T13:41:52.332Z,8.25
2022-10-19T13:46:16.956Z,7.93
2022-10-19T13:50:54.145Z,6.53
2022-10-19T13:55:20.832Z,6.60
2022-10-19T13:59:54.775Z,4.82
2022-10-19T14:04:15.338Z,5.07
2022-10-19T14:08:59.851Z,4.57
2022-10-19T14:13:14.647Z,4.35
2022-10-19T14:17:33.887Z,4.20
2022-10-19T14:21:45.982Z,3.95
2022-10-19T14:26:01.620Z,3.35
2022-10-19T14:30:23.221Z,3.33
2022-10-19T14:34:40.215Z,3.47
2022-10-19T14:38:55.944Z,3.15
2022-10-19T14:43:26.431Z,2.95
2022-10-19T14:47:58.096Z,3.05
2022-10-19T14:52:18.065Z,2.90
2022-10-19T14:56:51.340Z,2.90
2022-10-19T15:01:03.007Z,2.60
2022-10-19T15:05:24.204Z,2.55
2022-10-19T15:09:47.916Z,2.30
2022-10-19T15:14:14.880Z,2.40
2022-10-19T15:18:48.154Z,2.40
2022-10-19T15:23:02.444Z,2.20
2022-10-19T15:27:20.583Z,2.22
2022-10-19T15:31:32.087Z,2.03
2022-10-19T15:35:44.553Z,2.00
2022-10-19T15:39:56.419Z,1.98
2022-10-19T15:44:32.039Z,2.05
2022-10-19T15:48:52.302Z,2.15
2022-10-19T15:53:06.657Z,2.10
2022-10-19T15:57:40.475Z,1.70
2022-10-19T16:01:54.966Z,1.83
2022-10-19T16:06:08.403Z,2.13
2022-10-19T16:10:25.497Z,2.10
2022-10-19T16:14:37.653Z,2.20
2022-10-19T16:18:49.497Z,1.95
2022-10-19T16:23:01.043Z,2.13
2022-10-19T16:27:16.243Z,2.30
2022-10-19T16:31:27.977Z,2.13
2022-10-19T16:35:39.548Z,2.40
2022-10-19T16:39:51.051Z,2.47
2022-10-19T16:44:02.698Z,2.35
2022-10-19T16:48:14.225Z,2.30
2022-10-19T16:52:27.085Z,2.42
2022-10-19T16:56:46.316Z,2.80
2022-10-19T17:01:01.321Z,3.08
2022-10-19T17:05:12.884Z,3.33
2022-10-19T17:13:59.322Z,3.47
2022-10-19T17:18:11.037Z,3.42
2022-10-19T17:22:22.572Z,3.47
2022-10-19T17:26:45.135Z,4.00
2022-10-19T17:30:57.785Z,4.22
2022-10-19T17:35:09.408Z,4.93
2022-10-19T17:39:25.663Z,5.47
2022-10-19T17:43:43.219Z,6.30
2022-10-19T17:47:56.034Z,7.03
2022-10-19T17:52:07.518Z,7.35
2022-10-19T17:56:20.760Z,7.65
2022-10-19T18:00:32.244Z,7.43
2022-10-19T18:04:43.736Z,8.18
2022-10-19T18:08:56.695Z,8.35
2022-10-19T18:13:09.143Z,8.07
2022-10-19T18:17:24.048Z,7.60
2022-10-19T18:21:40.977Z,8.70
2022-10-19T18:25:54.358Z,8.13
2022-10-19T18:30:06.527Z,7.45
2022-10-19T18:34:21.240Z,8.25
2022-10-19T18:38:32.837Z,8.65
2022-10-19T18:42:44.532Z,7.80
2022-10-19T18:46:57.162Z,8.30
2022-10-19T18:51:08.723Z,7.53
2022-10-19T18:55:20.274Z,8.32
2022-10-19T18:59:31.771Z,8.23
2022-10-19T19:03:45.443Z,8.35
2022-10-19T19:07:57.104Z,8.80
2022-10-19T19:12:08.821Z,7.68
2022-10-19T19:16:21.122Z,8.30
2022-10-19T19:20:32.823Z,7.78
2022-10-19T19:24:44.419Z,7.50
2022-10-19T19:28:57.254Z,7.75
2022-10-19T19:33:09.155Z,8.82
2022-10-19T19:37:20.720Z,7.75
2022-10-19T19:41:34.027Z,8.18
2022-10-19T19:45:56.732Z,7.97
2022-10-19T19:50:08.805Z,8.00
2022-10-19T19:54:21.331Z,7.55
2022-10-19T19:58:32.852Z,7.60
2022-10-19T20:02:44.619Z,7.78
2022-10-19T20:06:56.140Z,8.15
2022-10-19T20:11:10.106Z,7.80
2022-10-19T20:15:21.892Z,8.15
2022-10-19T20:19:33.402Z,7.47
2022-10-19T20:23:46.355Z,8.95
2022-10-19T20:27:57.866Z,8.30
2022-10-19T20:32:09.402Z,8.55
2022-10-19T20:36:24.040Z,8.82
2022-10-19T20:40:37.623Z,8.98
2022-10-19T20:44:49.168Z,8.88
2022-10-19T20:49:02.956Z,8.70
2022-10-19T20:53:14.463Z,9.05
2022-10-19T20:57:25.991Z,8.85
2022-10-19T21:01:39.389Z,9.13
2022-10-19T21:05:50.924Z,9.52
2022-10-19T21:10:02.550Z,9.93
2022-10-19T21:14:22.442Z,9.75
2022-10-19T21:18:37.307Z,9.45
2022-10-19T21:22:48.822Z,9.95
2022-10-19T21:27:01.618Z,9.70
